sensor_id;sensor_type;location;lat;lon;timestamp;P1;durP1;ratioP1;P2;durP2;ratioP2
59054;SDS011;44845;51.444;7.460;2022-10-26T00:01:02;3.85;;;1.30;;
59054;SDS011;44845;51.444;7.460;2022-10-26T00:03:28;6.97;;;1.20;;
59054;SDS011;44845;51.444;7.460;2022-10-26T00:05:53;2.45;;;0.90;;
59054;SDS011;44845;51.444;7.460;2022-10-26T00:08:18;3.40;;;1.00;;
59054;SDS011;44845;51.444;7.460;2022-10-26T00:10:44;6.93;;;1.23;;
59054;SDS011;44845;51.444;7.460;2022-10-26T00:13:09;4.38;;;1.00;;
59054;SDS011;44845;51.444;7.460;2022-10-26T00:15:40;3.22;;;0.95;;
59054;SDS011;44845;51.444;7.460;2022-10-26T00:18:06;13.00;;;1.83;;
59054;SDS011;44845;51.444;7.460;2022-10-26T00:20:32;6.72;;;0.75;;
59054;SDS011;44845;51.444;7.460;2022-10-26T00:22:57;6.47;;;1.05;;
59054;SDS011;44845;51.444;7.460;2022-10-26T00:25:23;4.53;;;1.15;;
59054;SDS011;44845;51.444;7.460;2022-10-26T00:27:48;7.00;;;1.20;;
59054;SDS011;44845;51.444;7.460;2022-10-26T00:30:13;7.55;;;1.02;;
59054;SDS011;44845;51.444;7.460;2022-10-26T00:32:39;6.05;;;1.20;;
59054;SDS011;44845;51.444;7.460;2022-10-26T00:35:04;10.20;;;1.30;;
59054;SDS011;44845;51.444;7.460;2022-10-26T00:37:30;3.60;;;0.88;;
59054;SDS011;44845;51.444;7.460;2022-10-26T00:39:55;7.03;;;1.75;;
59054;SDS011;44845;51.444;7.460;2022-10-26T00:42:20;4.82;;;1.20;;
59054;SDS011;44845;51.444;7.460;2022-10-26T00:47:14;9.70;;;1.20;;
59054;SDS011;44845;51.444;7.460;2022-10-26T00:49:44;6.18;;;1.13;;
59054;SDS011;44845;51.444;7.460;2022-10-26T00:52:13;6.80;;;1.40;;
59054;SDS011;44845;51.444;7.460;2022-10-26T00:54:42;6.55;;;1.00;;
59054;SDS011;44845;51.444;7.460;2022-10-26T00:57:07;7.63;;;1.10;;
59054;SDS011;44845;51.444;7.460;2022-10-26T00:59:32;4.10;;;0.90;;
59054;SDS011;44845;51.444;7.460;2022-10-26T01:01:58;2.63;;;0.77;;
59054;SDS011;44845;51.444;7.460;2022-10-26T01:04:23;2.65;;;0.90;;
59054;SDS011;44845;51.444;7.460;2022-10-26T01:06:49;4.28;;;1.13;;
59054;SDS011;44845;51.444;7.460;2022-10-26T01:09:16;4.47;;;0.98;;
59054;SDS011;44845;51.444;7.460;2022-10-26T01:11:42;5.93;;;1.20;;
59054;SDS011;44845;51.444;7.460;2022-10-26T01:14:08;6.32;;;1.02;;
59054;SDS011;44845;51.444;7.460;2022-10-26T01:27:40;10.55;;;1.30;;
59054;SDS011;44845;51.444;7.460;2022-10-26T01:38:34;5.55;;;1.17;;
59054;SDS011;44845;51.444;7.460;2022-10-26T01:44:12;2.50;;;0.80;;
59054;SDS011;44845;51.444;7.460;2022-10-26T01:46:42;4.93;;;1.20;;
59054;SDS011;44845;51.444;7.460;2022-10-26T01:49:11;11.38;;;0.85;;
59054;SDS011;44845;51.444;7.460;2022-10-26T01:51:39;6.40;;;1.08;;
59054;SDS011;44845;51.444;7.460;2022-10-26T01:54:07;7.35;;;0.73;;
59054;SDS011;44845;51.444;7.460;2022-10-26T01:56:33;6.32;;;1.00;;
59054;SDS011;44845;51.444;7.460;2022-10-26T02:07:59;4.05;;;0.63;;
59054;SDS011;44845;51.444;7.460;2022-10-26T02:10:09;4.88;;;0.70;;
59054;SDS011;44845;51.444;7.460;2022-10-26T02:12:53;5.90;;;0.90;;
59054;SDS011;44845;51.444;7.460;2022-10-26T02:15:21;6.72;;;0.90;;
59054;SDS011;44845;51.444;7.460;2022-10-26T02:17:53;5.32;;;1.00;;
59054;SDS011;44845;51.444;7.460;2022-10-26T02:20:28;11.55;;;1.00;;
59054;SDS011;44845;51.444;7.460;2022-10-26T02:22:57;4.95;;;0.80;;
59054;SDS011;44845;51.444;7.460;2022-10-26T02:25:27;2.75;;;0.75;;
59054;SDS011;44845;51.444;7.460;2022-10-26T02:27:58;3.03;;;0.80;;
59054;SDS011;44845;51.444;7.460;2022-10-26T02:30:29;10.75;;;1.25;;
59054;SDS011;44845;51.444;7.460;2022-10-26T02:32:57;5.35;;;1.00;;
59054;SDS011;44845;51.444;7.460;2022-10-26T02:35:28;6.55;;;0.75;;
59054;SDS011;44845;51.444;7.460;2022-10-26T02:37:56;6.30;;;0.93;;
59054;SDS011;44845;51.444;7.460;2022-10-26T02:40:26;3.25;;;0.60;;
59054;SDS011;44845;51.444;7.460;2022-10-26T02:42:53;7.97;;;1.23;;
59054;SDS011;44845;51.444;7.460;2022-10-26T02:45:25;7.50;;;0.70;;
59054;SDS011;44845;51.444;7.460;2022-10-26T02:50:23;6.88;;;0.70;;
59054;SDS011;44845;51.444;7.460;2022-10-26T02:53:09;2.08;;;1.00;;
59054;SDS011;44845;51.444;7.460;2022-10-26T02:55:47;14.07;;;1.20;;
59054;SDS011;44845;51.444;7.460;2022-10-26T02:58:15;6.40;;;1.00;;
59054;SDS011;44845;51.444;7.460;2022-10-26T03:00:46;4.18;;;0.80;;
59054;SDS011;44845;51.444;7.460;2022-10-26T03:03:11;4.88;;;1.10;;
59054;SDS011;44845;51.444;7.460;2022-10-26T03:05:40;1.80;;;0.98;;
59054;SDS011;44845;51.444;7.460;2022-10-26T03:08:06;5.53;;;1.02;;
59054;SDS011;44845;51.444;7.460;2022-10-26T03:10:32;5.30;;;0.80;;
59054;SDS011;44845;51.444;7.460;2022-10-26T03:13:00;6.78;;;1.08;;
59054;SDS011;44845;51.444;7.460;2022-10-26T03:15:26;6.22;;;0.98;;
59054;SDS011;44845;51.444;7.460;2022-10-26T03:17:51;6.25;;;1.15;;
59054;SDS011;44845;51.444;7.460;2022-10-26T03:20:16;7.88;;;0.88;;
59054;SDS011;44845;51.444;7.460;2022-10-26T03:22:42;10.50;;;1.98;;
59054;SDS011;44845;51.444;7.460;2022-10-26T03:25:07;7.07;;;1.50;;
59054;SDS011;44845;51.444;7.460;2022-10-26T03:27:33;6.07;;;1.25;;
59054;SDS011;44845;51.444;7.460;2022-10-26T03:29:59;11.10;;;1.55;;
59054;SDS011;44845;51.444;7.460;2022-10-26T03:32:24;7.60;;;1.30;;
59054;SDS011;44845;51.444;7.460;2022-10-26T03:34:49;5.00;;;0.98;;
59054;SDS011;44845;51.444;7.460;2022-10-26T03:37:15;10.00;;;1.17;;
59054;SDS011;44845;51.444;7.460;2022-10-26T03:39:40;6.18;;;1.15;;
59054;SDS011;44845;51.444;7.460;2022-10-26T03:42:05;4.57;;;1.00;;
59054;SDS011;44845;51.444;7.460;2022-10-26T03:44:31;8.20;;;1.27;;
59054;SDS011;44845;51.444;7.460;2022-10-26T03:46:56;8.25;;;1.10;;
59054;SDS011;44845;51.444;7.460;2022-10-26T03:49:21;5.15;;;0.80;;
59054;SDS011;44845;51.444;7.460;2022-10-26T03:51:47;1.95;;;1.00;;
59054;SDS011;44845;51.444;7.460;2022-10-26T03:54:12;7.18;;;1.17;;
59054;SDS011;44845;51.444;7.460;2022-10-26T03:56:37;7.78;;;1.20;;
59054;SDS011;44845;51.444;7.460;2022-10-26T03:59:03;8.38;;;1.20;;
59054;SDS011;44845;51.444;7.460;2022-10-26T04:01:28;4.47;;;0.82;;
59054;SDS011;44845;51.444;7.460;2022-10-26T04:03:53;5.95;;;0.93;;
59054;SDS011;44845;51.444;7.460;2022-10-26T04:06:19;5.18;;;0.70;;
59054;SDS011;44845;51.444;7.460;2022-10-26T04:08:44;6.50;;;0.90;;
59054;SDS011;44845;51.444;7.460;2022-10-26T04:11:09;10.95;;;1.05;;
59054;SDS011;44845;51.444;7.460;2022-10-26T04:13:35;8.20;;;1.25;;
59054;SDS011;44845;51.444;7.460;2022-10-26T04:16:00;10.07;;;1.55;;
59054;SDS011;44845;51.444;7.460;2022-10-26T04:18:26;2.58;;;0.88;;
59054;SDS011;44845;51.444;7.460;2022-10-26T04:20:51;6.47;;;0.98;;
59054;SDS011;44845;51.444;7.460;2022-10-26T04:23:17;5.55;;;0.95;;
59054;SDS011;44845;51.444;7.460;2022-10-26T04:25:43;6.07;;;0.98;;
59054;SDS011;44845;51.444;7.460;2022-10-26T04:28:10;3.53;;;0.90;;
59054;SDS011;44845;51.444;7.460;2022-10-26T04:30:36;3.33;;;1.05;;
59054;SDS011;44845;51.444;7.460;2022-10-26T04:33:02;6.30;;;0.90;;
59054;SDS011;44845;51.444;7.460;2022-10-26T04:35:29;7.60;;;0.98;;
59054;SDS011;44845;51.444;7.460;2022-10-26T04:37:57;6.78;;;1.17;;
59054;SDS011;44845;51.444;7.460;2022-10-26T04:40:24;8.27;;;1.00;;
59054;SDS011;44845;51.444;7.460;2022-10-26T04:42:50;4.75;;;0.90;;
59054;SDS011;44845;51.444;7.460;2022-10-26T04:45:15;8.95;;;1.10;;
59054;SDS011;44845;51.444;7.460;2022-10-26T04:47:40;8.88;;;1.02;;
59054;SDS011;44845;51.444;7.460;2022-10-26T04:50:07;3.55;;;0.95;;
59054;SDS011;44845;51.444;7.460;2022-10-26T04:52:33;3.30;;;1.00;;
59054;SDS011;44845;51.444;7.460;2022-10-26T04:54:59;8.30;;;1.42;;
59054;SDS011;44845;51.444;7.460;2022-10-26T04:57:25;6.97;;;0.93;;
59054;SDS011;44845;51.444;7.460;2022-10-26T04:59:50;9.27;;;0.95;;
59054;SDS011;44845;51.444;7.460;2022-10-26T05:02:15;3.20;;;0.90;;
59054;SDS011;44845;51.444;7.460;2022-10-26T05:04:41;8.15;;;1.42;;
59054;SDS011;44845;51.444;7.460;2022-10-26T05:07:06;7.45;;;0.90;;
59054;SDS011;44845;51.444;7.460;2022-10-26T05:09:31;6.35;;;0.90;;
59054;SDS011;44845;51.444;7.460;2022-10-26T05:11:57;12.35;;;0.90;;
59054;SDS011;44845;51.444;7.460;2022-10-26T05:14:22;2.08;;;0.73;;
59054;SDS011;44845;51.444;7.460;2022-10-26T05:16:49;5.00;;;1.27;;
59054;SDS011;44845;51.444;7.460;2022-10-26T05:19:14;2.65;;;0.80;;
59054;SDS011;44845;51.444;7.460;2022-10-26T05:21:40;7.35;;;0.80;;
59054;SDS011;44845;51.444;7.460;2022-10-26T05:24:05;5.05;;;0.80;;
59054;SDS011;44845;51.444;7.460;2022-10-26T05:26:31;4.97;;;1.15;;
59054;SDS011;44845;51.444;7.460;2022-10-26T05:28:56;4.10;;;0.90;;
59054;SDS011;44845;51.444;7.460;2022-10-26T05:31:21;7.82;;;1.00;;
59054;SDS011;44845;51.444;7.460;2022-10-26T05:33:47;5.68;;;0.82;;
59054;SDS011;44845;51.444;7.460;2022-10-26T05:36:14;10.88;;;0.80;;
59054;SDS011;44845;51.444;7.460;2022-10-26T05:38:40;4.05;;;0.80;;
59054;SDS011;44845;51.444;7.460;2022-10-26T05:41:06;10.88;;;0.70;;
59054;SDS011;44845;51.444;7.460;2022-10-26T05:43:31;6.10;;;0.70;;
59054;SDS011;44845;51.444;7.460;2022-10-26T05:45:56;5.20;;;0.82;;
59054;SDS011;44845;51.444;7.460;2022-10-26T05:48:22;1.20;;;0.50;;
59054;SDS011;44845;51.444;7.460;2022-10-26T05:50:47;6.90;;;0.73;;
59054;SDS011;44845;51.444;7.460;2022-10-26T05:53:12;4.68;;;0.70;;
59054;SDS011;44845;51.444;7.460;2022-10-26T05:55:38;4.88;;;0.65;;
59054;SDS011;44845;51.444;7.460;2022-10-26T05:58:07;5.97;;;0.70;;
59054;SDS011;44845;51.444;7.460;2022-10-26T06:00:34;4.07;;;0.70;;
59054;SDS011;44845;51.444;7.460;2022-10-26T06:05:49;5.30;;;0.50;;
59054;SDS011;44845;51.444;7.460;2022-10-26T06:08:17;6.53;;;0.85;;
59054;SDS011;44845;51.444;7.460;2022-10-26T06:10:43;9.93;;;0.90;;
59054;SDS011;44845;51.444;7.460;2022-10-26T06:13:09;8.15;;;0.80;;
59054;SDS011;44845;51.444;7.460;2022-10-26T06:15:36;6.22;;;0.70;;
59054;SDS011;44845;51.444;7.460;2022-10-26T06:23:31;4.90;;;0.80;;
59054;SDS011;44845;51.444;7.460;2022-10-26T06:26:07;7.63;;;0.73;;
59054;SDS011;44845;51.444;7.460;2022-10-26T06:31:26;3.17;;;0.70;;
59054;SDS011;44845;51.444;7.460;2022-10-26T06:33:52;3.38;;;0.90;;
59054;SDS011;44845;51.444;7.460;2022-10-26T06:36:24;5.18;;;0.70;;
59054;SDS011;44845;51.444;7.460;2022-10-26T06:38:57;7.03;;;0.73;;
59054;SDS011;44845;51.444;7.460;2022-10-26T06:43:52;2.95;;;0.85;;
59054;SDS011;44845;51.444;7.460;2022-10-26T06:51:18;4.57;;;0.60;;
59054;SDS011;44845;51.444;7.460;2022-10-26T06:53:47;3.42;;;0.65;;
59054;SDS011;44845;51.444;7.460;2022-10-26T06:56:45;1.73;;;0.70;;
59054;SDS011;44845;51.444;7.460;2022-10-26T06:59:16;4.82;;;0.77;;
59054;SDS011;44845;51.444;7.460;2022-10-26T07:01:52;3.38;;;0.60;;
59054;SDS011;44845;51.444;7.460;2022-10-26T07:04:18;7.90;;;0.60;;
59054;SDS011;44845;51.444;7.460;2022-10-26T07:06:43;2.67;;;0.60;;
59054;SDS011;44845;51.444;7.460;2022-10-26T07:09:08;3.50;;;0.70;;
59054;SDS011;44845;51.444;7.460;2022-10-26T07:11:34;4.93;;;0.70;;
59054;SDS011;44845;51.444;7.460;2022-10-26T07:13:59;5.38;;;0.70;;
59054;SDS011;44845;51.444;7.460;2022-10-26T07:16:24;3.47;;;0.68;;
59054;SDS011;44845;51.444;7.460;2022-10-26T07:18:50;3.13;;;0.60;;
59054;SDS011;44845;51.444;7.460;2022-10-26T07:21:15;3.33;;;0.68;;
59054;SDS011;44845;51.444;7.460;2022-10-26T07:23:40;7.93;;;0.60;;
59054;SDS011;44845;51.444;7.460;2022-10-26T07:26:06;5.07;;;0.60;;
59054;SDS011;44845;51.444;7.460;2022-10-26T07:28:31;1.73;;;0.63;;
59054;SDS011;44845;51.444;7.460;2022-10-26T07:30:57;3.83;;;0.57;;
59054;SDS011;44845;51.444;7.460;2022-10-26T07:33:22;3.60;;;0.82;;
59054;SDS011;44845;51.444;7.460;2022-10-26T07:35:47;4.47;;;0.75;;
59054;SDS011;44845;51.444;7.460;2022-10-26T07:38:13;4.05;;;0.60;;
59054;SDS011;44845;51.444;7.460;2022-10-26T07:40:38;4.00;;;0.80;;
59054;SDS011;44845;51.444;7.460;2022-10-26T07:43:03;1.67;;;0.47;;
59054;SDS011;44845;51.444;7.460;2022-10-26T07:45:29;3.60;;;0.60;;
59054;SDS011;44845;51.444;7.460;2022-10-26T07:47:54;7.53;;;0.80;;
59054;SDS011;44845;51.444;7.460;2022-10-26T07:50:20;3.05;;;0.80;;
59054;SDS011;44845;51.444;7.460;2022-10-26T07:52:45;4.68;;;0.70;;
59054;SDS011;44845;51.444;7.460;2022-10-26T07:55:11;1.80;;;0.52;;
59054;SDS011;44845;51.444;7.460;2022-10-26T07:57:36;1.33;;;0.50;;
59054;SDS011;44845;51.444;7.460;2022-10-26T08:00:06;2.53;;;0.45;;
59054;SDS011;44845;51.444;7.460;2022-10-26T08:02:32;1.17;;;0.50;;
59054;SDS011;44845;51.444;7.460;2022-10-26T08:04:58;1.25;;;0.50;;
59054;SDS011;44845;51.444;7.460;2022-10-26T08:07:23;5.15;;;0.60;;
59054;SDS011;44845;51.444;7.460;2022-10-26T08:09:50;1.35;;;0.40;;
59054;SDS011;44845;51.444;7.460;2022-10-26T08:12:15;7.45;;;0.50;;
59054;SDS011;44845;51.444;7.460;2022-10-26T08:14:41;3.78;;;0.85;;
59054;SDS011;44845;51.444;7.460;2022-10-26T08:17:07;2.63;;;0.50;;
59054;SDS011;44845;51.444;7.460;2022-10-26T08:19:33;11.05;;;0.82;;
59054;SDS011;44845;51.444;7.460;2022-10-26T08:21:58;4.63;;;0.70;;
59054;SDS011;44845;51.444;7.460;2022-10-26T08:24:24;4.38;;;0.60;;
59054;SDS011;44845;51.444;7.460;2022-10-26T08:26:49;2.28;;;0.50;;
59054;SDS011;44845;51.444;7.460;2022-10-26T08:29:14;4.53;;;0.52;;
59054;SDS011;44845;51.444;7.460;2022-10-26T08:31:40;4.10;;;0.65;;
59054;SDS011;44845;51.444;7.460;2022-10-26T08:34:05;2.70;;;0.40;;
59054;SDS011;44845;51.444;7.460;2022-10-26T08:36:30;10.35;;;0.85;;
59054;SDS011;44845;51.444;7.460;2022-10-26T08:38:56;7.63;;;1.08;;
59054;SDS011;44845;51.444;7.460;2022-10-26T08:46:49;5.55;;;1.20;;
59054;SDS011;44845;51.444;7.460;2022-10-26T08:49:20;7.15;;;1.08;;
59054;SDS011;44845;51.444;7.460;2022-10-26T08:51:49;3.10;;;0.85;;
59054;SDS011;44845;51.444;7.460;2022-10-26T08:54:19;4.65;;;0.88;;
59054;SDS011;44845;51.444;7.460;2022-10-26T08:56:59;2.70;;;0.80;;
59054;SDS011;44845;51.444;7.460;2022-10-26T08:59:37;8.80;;;1.02;;
59054;SDS011;44845;51.444;7.460;2022-10-26T09:02:15;5.13;;;0.85;;
59054;SDS011;44845;51.444;7.460;2022-10-26T09:04:41;3.75;;;0.93;;
59054;SDS011;44845;51.444;7.460;2022-10-26T09:07:10;7.07;;;0.98;;
59054;SDS011;44845;51.444;7.460;2022-10-26T09:12:52;7.80;;;0.93;;
59054;SDS011;44845;51.444;7.460;2022-10-26T09:15:25;4.00;;;0.90;;
59054;SDS011;44845;51.444;7.460;2022-10-26T09:20:56;7.15;;;1.10;;
59054;SDS011;44845;51.444;7.460;2022-10-26T09:23:42;4.90;;;0.93;;
59054;SDS011;44845;51.444;7.460;2022-10-26T09:26:44;5.82;;;1.00;;
59054;SDS011;44845;51.444;7.460;2022-10-26T09:29:26;7.72;;;1.50;;
59054;SDS011;44845;51.444;7.460;2022-10-26T09:31:56;6.00;;;1.30;;
59054;SDS011;44845;51.444;7.460;2022-10-26T09:36:59;4.63;;;0.88;;
59054;SDS011;44845;51.444;7.460;2022-10-26T09:39:39;5.78;;;1.17;;
59054;SDS011;44845;51.444;7.460;2022-10-26T09:42:17;3.33;;;0.80;;
59054;SDS011;44845;51.444;7.460;2022-10-26T09:45:15;3.67;;;0.90;;
59054;SDS011;44845;51.444;7.460;2022-10-26T09:47:47;5.10;;;1.02;;
59054;SDS011;44845;51.444;7.460;2022-10-26T09:50:21;6.57;;;1.25;;
59054;SDS011;44845;51.444;7.460;2022-10-26T09:52:51;4.15;;;1.00;;
59054;SDS011;44845;51.444;7.460;2022-10-26T09:55:16;6.75;;;1.17;;
59054;SDS011;44845;51.444;7.460;2022-10-26T09:57:44;5.93;;;1.25;;
59054;SDS011;44845;51.444;7.460;2022-10-26T10:00:13;7.50;;;0.95;;
59054;SDS011;44845;51.444;7.460;2022-10-26T10:02:40;6.60;;;1.10;;
59054;SDS011;44845;51.444;7.460;2022-10-26T10:05:19;9.18;;;1.42;;
59054;SDS011;44845;51.444;7.460;2022-10-26T10:07:48;5.75;;;1.00;;
59054;SDS011;44845;51.444;7.460;2022-10-26T10:10:14;6.75;;;1.02;;
59054;SDS011;44845;51.444;7.460;2022-10-26T10:12:44;7.60;;;1.17;;
59054;SDS011;44845;51.444;7.460;2022-10-26T10:17:50;9.15;;;1.10;;
59054;SDS011;44845;51.444;7.460;2022-10-26T10:20:17;6.97;;;1.95;;
59054;SDS011;44845;51.444;7.460;2022-10-26T10:22:54;7.10;;;1.42;;
59054;SDS011;44845;51.444;7.460;2022-10-26T10:25:22;5.15;;;1.20;;
59054;SDS011;44845;51.444;7.460;2022-10-26T10:27:56;6.53;;;1.33;;
59054;SDS011;44845;51.444;7.460;2022-10-26T10:30:22;7.97;;;1.10;;
59054;SDS011;44845;51.444;7.460;2022-10-26T10:33:03;4.80;;;1.30;;
59054;SDS011;44845;51.444;7.460;2022-10-26T10:35:30;5.80;;;1.17;;
59054;SDS011;44845;51.444;7.460;2022-10-26T10:37:55;5.55;;;1.63;;
59054;SDS011;44845;51.444;7.460;2022-10-26T10:40:25;3.65;;;1.20;;
59054;SDS011;44845;51.444;7.460;2022-10-26T10:43:01;12.57;;;1.75;;
59054;SDS011;44845;51.444;7.460;2022-10-26T10:45:29;5.90;;;1.20;;
59054;SDS011;44845;51.444;7.460;2022-10-26T10:47:58;5.68;;;1.30;;
59054;SDS011;44845;51.444;7.460;2022-10-26T10:51:04;13.77;;;1.73;;
59054;SDS011;44845;51.444;7.460;2022-10-26T10:53:46;8.35;;;1.30;;
59054;SDS011;44845;51.444;7.460;2022-10-26T11:01:39;8.98;;;1.50;;
59054;SDS011;44845;51.444;7.460;2022-10-26T11:07:09;6.82;;;1.65;;
59054;SDS011;44845;51.444;7.460;2022-10-26T11:09:38;7.18;;;1.48;;
59054;SDS011;44845;51.444;7.460;2022-10-26T11:12:08;6.13;;;1.60;;
59054;SDS011;44845;51.444;7.460;2022-10-26T11:14:46;17.17;;;2.10;;
59054;SDS011;44845;51.444;7.460;2022-10-26T11:17:20;6.75;;;1.70;;
59054;SDS011;44845;51.444;7.460;2022-10-26T11:19:52;11.60;;;1.70;;
59054;SDS011;44845;51.444;7.460;2022-10-26T11:22:28;6.75;;;1.42;;
59054;SDS011;44845;51.444;7.460;2022-10-26T11:24:58;6.75;;;1.45;;
59054;SDS011;44845;51.444;7.460;2022-10-26T11:27:50;4.43;;;1.40;;
59054;SDS011;44845;51.444;7.460;2022-10-26T11:30:20;8.82;;;1.42;;
59054;SDS011;44845;51.444;7.460;2022-10-26T11:32:51;5.97;;;1.48;;
59054;SDS011;44845;51.444;7.460;2022-10-26T11:35:41;8.43;;;1.63;;
59054;SDS011;44845;51.444;7.460;2022-10-26T11:40:50;4.37;;;1.80;;
59054;SDS011;44845;51.444;7.460;2022-10-26T11:46:05;9.97;;;1.50;;
59054;SDS011;44845;51.444;7.460;2022-10-26T11:53:54;8.77;;;1.65;;
59054;SDS011;44845;51.444;7.460;2022-10-26T11:56:28;5.70;;;1.33;;
59054;SDS011;44845;51.444;7.460;2022-10-26T11:58:58;5.13;;;1.33;;
59054;SDS011;44845;51.444;7.460;2022-10-26T12:01:23;8.88;;;1.73;;
59054;SDS011;44845;51.444;7.460;2022-10-26T12:03:52;8.27;;;1.58;;
59054;SDS011;44845;51.444;7.460;2022-10-26T12:06:23;11.48;;;1.40;;
59054;SDS011;44845;51.444;7.460;2022-10-26T12:09:26;7.50;;;1.27;;
59054;SDS011;44845;51.444;7.460;2022-10-26T12:14:41;4.93;;;1.63;;
59054;SDS011;44845;51.444;7.460;2022-10-26T12:17:29;8.15;;;1.75;;
59054;SDS011;44845;51.444;7.460;2022-10-26T12:22:54;4.82;;;1.13;;
59054;SDS011;44845;51.444;7.460;2022-10-26T12:25:20;5.78;;;1.70;;
59054;SDS011;44845;51.444;7.460;2022-10-26T12:35:28;6.55;;;1.50;;
59054;SDS011;44845;51.444;7.460;2022-10-26T12:37:53;8.30;;;1.33;;
59054;SDS011;44845;51.444;7.460;2022-10-26T12:42:57;8.10;;;1.00;;
59054;SDS011;44845;51.444;7.460;2022-10-26T12:45:42;3.00;;;1.02;;
59054;SDS011;44845;51.444;7.460;2022-10-26T12:50:49;5.80;;;1.23;;
59054;SDS011;44845;51.444;7.460;2022-10-26T12:53:15;11.23;;;1.40;;
59054;SDS011;44845;51.444;7.460;2022-10-26T12:58:21;5.38;;;1.10;;
59054;SDS011;44845;51.444;7.460;2022-10-26T13:01:07;7.22;;;1.23;;
59054;SDS011;44845;51.444;7.460;2022-10-26T13:04:15;6.22;;;1.35;;
59054;SDS011;44845;51.444;7.460;2022-10-26T13:09:43;4.75;;;1.40;;
59054;SDS011;44845;51.444;7.460;2022-10-26T13:17:43;9.77;;;1.50;;
59054;SDS011;44845;51.444;7.460;2022-10-26T13:20:31;10.85;;;1.83;;
59054;SDS011;44845;51.444;7.460;2022-10-26T13:23:00;5.30;;;1.58;;
59054;SDS011;44845;51.444;7.460;2022-10-26T13:25:26;2.15;;;1.23;;
59054;SDS011;44845;51.444;7.460;2022-10-26T13:32:57;4.68;;;1.20;;
59054;SDS011;44845;51.444;7.460;2022-10-26T13:35:25;10.70;;;1.30;;
59054;SDS011;44845;51.444;7.460;2022-10-26T13:37:54;10.18;;;1.50;;
59054;SDS011;44845;51.444;7.460;2022-10-26T13:40:25;4.45;;;1.23;;
59054;SDS011;44845;51.444;7.460;2022-10-26T13:42:55;5.45;;;1.48;;
59054;SDS011;44845;51.444;7.460;2022-10-26T13:46:05;5.43;;;1.02;;
59054;SDS011;44845;51.444;7.460;2022-10-26T13:48:25;3.15;;;1.27;;
59054;SDS011;44845;51.444;7.460;2022-10-26T13:50:59;5.80;;;1.25;;
59054;SDS011;44845;51.444;7.460;2022-10-26T13:56:07;2.28;;;1.25;;
59054;SDS011;44845;51.444;7.460;2022-10-26T13:58:47;4.13;;;0.90;;
59054;SDS011;44845;51.444;7.460;2022-10-26T14:01:16;7.32;;;1.20;;
59054;SDS011;44845;51.444;7.460;2022-10-26T14:03:45;2.00;;;1.00;;
59054;SDS011;44845;51.444;7.460;2022-10-26T14:08:41;3.92;;;0.60;;
59054;SDS011;44845;51.444;7.460;2022-10-26T14:11:09;4.13;;;1.00;;
59054;SDS011;44845;51.444;7.460;2022-10-26T14:13:38;7.45;;;0.68;;
59054;SDS011;44845;51.444;7.460;2022-10-26T14:16:05;3.38;;;0.93;;
59054;SDS011;44845;51.444;7.460;2022-10-26T14:18:33;6.28;;;1.17;;
59054;SDS011;44845;51.444;7.460;2022-10-26T14:21:05;6.88;;;0.70;;
59054;SDS011;44845;51.444;7.460;2022-10-26T14:23:44;3.33;;;1.10;;
59054;SDS011;44845;51.444;7.460;2022-10-26T14:26:18;2.30;;;0.70;;
59054;SDS011;44845;51.444;7.460;2022-10-26T14:28:46;5.25;;;0.73;;
59054;SDS011;44845;51.444;7.460;2022-10-26T14:31:30;4.55;;;0.80;;
59054;SDS011;44845;51.444;7.460;2022-10-26T14:33:58;3.58;;;0.60;;
59054;SDS011;44845;51.444;7.460;2022-10-26T14:36:47;1.60;;;0.57;;
59054;SDS011;44845;51.444;7.460;2022-10-26T14:39:30;4.45;;;0.65;;
59054;SDS011;44845;51.444;7.460;2022-10-26T14:42:02;3.50;;;0.70;;
59054;SDS011;44845;51.444;7.460;2022-10-26T14:44:35;4.65;;;0.75;;
59054;SDS011;44845;51.444;7.460;2022-10-26T14:47:01;7.25;;;0.82;;
59054;SDS011;44845;51.444;7.460;2022-10-26T14:49:27;1.92;;;0.77;;
59054;SDS011;44845;51.444;7.460;2022-10-26T14:51:56;2.38;;;0.75;;
59054;SDS011;44845;51.444;7.460;2022-10-26T14:54:24;1.90;;;0.75;;
59054;SDS011;44845;51.444;7.460;2022-10-26T14:56:51;3.15;;;1.02;;
59054;SDS011;44845;51.444;7.460;2022-10-26T15:01:48;5.43;;;0.68;;
59054;SDS011;44845;51.444;7.460;2022-10-26T15:06:59;4.00;;;0.77;;
59054;SDS011;44845;51.444;7.460;2022-10-26T15:09:45;3.13;;;0.95;;
59054;SDS011;44845;51.444;7.460;2022-10-26T15:12:18;3.90;;;0.90;;
59054;SDS011;44845;51.444;7.460;2022-10-26T15:14:58;5.38;;;0.52;;
59054;SDS011;44845;51.444;7.460;2022-10-26T15:17:38;4.13;;;0.90;;
59054;SDS011;44845;51.444;7.460;2022-10-26T15:20:07;6.22;;;0.80;;
59054;SDS011;44845;51.444;7.460;2022-10-26T15:22:40;2.35;;;0.90;;
59054;SDS011;44845;51.444;7.460;2022-10-26T15:25:12;5.00;;;0.90;;
59054;SDS011;44845;51.444;7.460;2022-10-26T15:27:44;2.53;;;0.80;;
59054;SDS011;44845;51.444;7.460;2022-10-26T15:30:43;3.08;;;1.10;;
59054;SDS011;44845;51.444;7.460;2022-10-26T15:33:18;5.68;;;0.70;;
59054;SDS011;44845;51.444;7.460;2022-10-26T15:35:45;5.38;;;0.63;;
59054;SDS011;44845;51.444;7.460;2022-10-26T15:38:11;4.45;;;1.00;;
59054;SDS011;44845;51.444;7.460;2022-10-26T15:40:40;2.60;;;0.90;;
59054;SDS011;44845;51.444;7.460;2022-10-26T15:43:07;5.65;;;1.00;;
59054;SDS011;44845;51.444;7.460;2022-10-26T15:45:35;2.40;;;0.80;;
59054;SDS011;44845;51.444;7.460;2022-10-26T15:48:15;5.25;;;1.00;;
59054;SDS011;44845;51.444;7.460;2022-10-26T15:50:53;4.40;;;0.90;;
59054;SDS011;44845;51.444;7.460;2022-10-26T15:53:20;2.65;;;0.80;;
59054;SDS011;44845;51.444;7.460;2022-10-26T15:55:47;3.35;;;0.93;;
59054;SDS011;44845;51.444;7.460;2022-10-26T15:58:15;3.70;;;0.93;;
59054;SDS011;44845;51.444;7.460;2022-10-26T16:00:41;2.47;;;1.08;;
59054;SDS011;44845;51.444;7.460;2022-10-26T16:03:07;8.13;;;1.10;;
59054;SDS011;44845;51.444;7.460;2022-10-26T16:05:37;4.82;;;1.15;;
59054;SDS011;44845;51.444;7.460;2022-10-26T16:08:02;3.08;;;1.00;;
59054;SDS011;44845;51.444;7.460;2022-10-26T16:10:28;3.40;;;0.70;;
59054;SDS011;44845;51.444;7.460;2022-10-26T16:12:53;6.22;;;1.02;;
59054;SDS011;44845;51.444;7.460;2022-10-26T16:15:20;4.63;;;0.90;;
59054;SDS011;44845;51.444;7.460;2022-10-26T16:17:47;7.35;;;0.98;;
59054;SDS011;44845;51.444;7.460;2022-10-26T16:20:17;7.65;;;1.20;;
59054;SDS011;44845;51.444;7.460;2022-10-26T16:22:46;5.80;;;1.00;;
59054;SDS011;44845;51.444;7.460;2022-10-26T16:25:14;5.15;;;0.93;;
59054;SDS011;44845;51.444;7.460;2022-10-26T16:27:40;8.10;;;0.88;;
59054;SDS011;44845;51.444;7.460;2022-10-26T16:30:06;4.05;;;1.08;;
59054;SDS011;44845;51.444;7.460;2022-10-26T16:32:32;3.40;;;0.93;;
59054;SDS011;44845;51.444;7.460;2022-10-26T16:34:58;5.03;;;1.27;;
59054;SDS011;44845;51.444;7.460;2022-10-26T16:37:23;1.70;;;1.00;;
59054;SDS011;44845;51.444;7.460;2022-10-26T16:39:48;7.65;;;1.35;;
59054;SDS011;44845;51.444;7.460;2022-10-26T16:42:14;4.55;;;1.20;;
59054;SDS011;44845;51.444;7.460;2022-10-26T16:44:39;4.63;;;1.08;;
59054;SDS011;44845;51.444;7.460;2022-10-26T16:47:04;8.60;;;1.20;;
59054;SDS011;44845;51.444;7.460;2022-10-26T16:49:29;6.88;;;1.10;;
59054;SDS011;44845;51.444;7.460;2022-10-26T16:51:55;3.38;;;0.90;;
59054;SDS011;44845;51.444;7.460;2022-10-26T16:54:21;6.20;;;1.35;;
59054;SDS011;44845;51.444;7.460;2022-10-26T16:56:47;7.18;;;1.35;;
59054;SDS011;44845;51.444;7.460;2022-10-26T16:59:13;7.43;;;1.42;;
59054;SDS011;44845;51.444;7.460;2022-10-26T17:01:38;5.18;;;1.10;;
59054;SDS011;44845;51.444;7.460;2022-10-26T17:04:03;5.28;;;1.20;;
59054;SDS011;44845;51.444;7.460;2022-10-26T17:06:29;7.05;;;1.30;;
59054;SDS011;44845;51.444;7.460;2022-10-26T17:08:54;7.50;;;1.35;;
59054;SDS011;44845;51.444;7.460;2022-10-26T17:11:20;5.05;;;1.38;;
59054;SDS011;44845;51.444;7.460;2022-10-26T17:13:46;5.53;;;1.10;;